createdAt,value
2023-03-20T00:00:20.826Z,100383.03
2023-03-20T00:03:11.543Z,100390.47
2023-03-20T00:06:00.075Z,100392.88
2023-03-20T00:08:49.959Z,100396.69
2023-03-20T00:11:43.509Z,100400.75
2023-03-20T00:14:40.402Z,100369.16
2023-03-20T00:17:28.913Z,100406.72
2023-03-20T00:20:18.016Z,100415.31
2023-03-20T00:23:06.544Z,100409.31
2023-03-20T00:25:55.060Z,100411.16
2023-03-20T00:28:45.216Z,100396.03
2023-03-20T00:31:37.084Z,100396.22
2023-03-20T00:34:29.021Z,100414.97
2023-03-20T00:37:17.539Z,100419.66
2023-03-20T00:40:07.497Z,100418.56
2023-03-20T00:43:00.529Z,100419.03
2023-03-20T00:45:49.134Z,100422.72
2023-03-20T00:48:40.257Z,100421.44
2023-03-20T00:51:28.748Z,100420.34
2023-03-20T00:54:18.602Z,100371.94
2023-03-20T00:57:09.442Z,100417.38
2023-03-20T01:00:00.043Z,100425.69
2023-03-20T01:02:48.843Z,100359.66
2023-03-20T01:05:39.006Z,100404.84
2023-03-20T01:08:27.648Z,100423.84
2023-03-20T01:11:18.172Z,100418.78
2023-03-20T01:14:07.307Z,100420.59
2023-03-20T01:16:55.868Z,100410.38
2023-03-20T01:19:44.407Z,100413.88
2023-03-20T01:22:34.214Z,100423.09
2023-03-20T01:25:23.257Z,100420.41
2023-03-20T01:28:18.289Z,100429.47
2023-03-20T01:31:07.220Z,100409.47
2023-03-20T01:33:55.754Z,100424.13
2023-03-20T01:36:46.856Z,100424.66
2023-03-20T01:39:37.723Z,100402.06
2023-03-20T01:42:26.312Z,100437.75
2023-03-20T01:45:18.016Z,100442.09
2023-03-20T01:48:15.322Z,100442.91
2023-03-20T01:51:03.844Z,100430.38
2023-03-20T01:53:54.349Z,100433.53
2023-03-20T01:56:47.205Z,100434.81
2023-03-20T01:59:38.056Z,100447.72
2023-03-20T02:02:30.310Z,100442.66
2023-03-20T02:05:20.850Z,100430.31
2023-03-20T02:08:23.025Z,100448.19
2023-03-20T02:11:11.937Z,100449.00
2023-03-20T02:14:02.874Z,100440.78
2023-03-20T02:16:51.553Z,100435.34
2023-03-20T02:19:45.643Z,100445.41
2023-03-20T02:23:24.768Z,100459.31
2023-03-20T02:26:24.184Z,100448.22
2023-03-20T02:29:39.598Z,100443.31
2023-03-20T02:33:06.535Z,100448.28
2023-03-20T02:36:33.684Z,100430.50
2023-03-20T02:39:51.161Z,100432.22
2023-03-20T02:42:43.666Z,100443.88
2023-03-20T02:45:35.903Z,100444.50
2023-03-20T02:48:34.733Z,100454.19
2023-03-20T02:51:30.993Z,100454.63
2023-03-20T02:54:23.781Z,100448.72
2023-03-20T02:57:18.184Z,100415.75
2023-03-20T03:00:10.192Z,100446.16
2023-03-20T03:03:05.867Z,100457.03
2023-03-20T03:05:55.929Z,100453.31
2023-03-20T03:08:48.905Z,100458.03
2023-03-20T03:11:40.218Z,100461.16
2023-03-20T03:14:35.671Z,100372.56
2023-03-20T03:17:26.694Z,100454.28
2023-03-20T03:20:21.009Z,100456.25
2023-03-20T03:23:13.184Z,100449.88
2023-03-20T03:26:03.877Z,100456.03
2023-03-20T03:28:55.682Z,100455.28
2023-03-20T03:31:46.075Z,100467.22
2023-03-20T03:34:35.636Z,100470.38
2023-03-20T03:37:30.456Z,100476.34
2023-03-20T03:40:22.898Z,100471.75
2023-03-20T03:43:16.456Z,100473.38
2023-03-20T03:46:08.665Z,100463.03
2023-03-20T03:48:58.884Z,100466.84
2023-03-20T03:51:51.042Z,100455.28
2023-03-20T03:54:43.572Z,100460.72
2023-03-20T03:57:35.494Z,100455.75
2023-03-20T04:00:25.415Z,100456.22
2023-03-20T04:03:14.098Z,100446.63
2023-03-20T04:06:04.739Z,100443.97
2023-03-20T04:08:53.266Z,100459.88
2023-03-20T04:11:41.762Z,100452.22
2023-03-20T04:14:30.619Z,100463.19
2023-03-20T04:17:19.104Z,100463.19
2023-03-20T04:20:09.145Z,100471.41
2023-03-20T04:22:59.072Z,100465.47
2023-03-20T04:25:47.575Z,100436.97
2023-03-20T04:28:36.386Z,100483.22
2023-03-20T04:31:24.993Z,100487.38
2023-03-20T04:34:13.525Z,100486.47
2023-03-20T04:37:02.126Z,100492.34
2023-03-20T04:39:51.995Z,100491.88
2023-03-20T04:42:40.515Z,100505.47
2023-03-20T04:45:28.962Z,100506.88
2023-03-20T04:48:17.440Z,100508.91
2023-03-20T04:51:06.458Z,100505.13
2023-03-20T04:53:55.070Z,100503.66
2023-03-20T04:56:45.026Z,100501.88
2023-03-20T04:59:33.502Z,100485.53
2023-03-20T05:02:21.972Z,100477.50
2023-03-20T05:05:11.091Z,100491.88
2023-03-20T05:07:59.601Z,100487.22
2023-03-20T05:10:48.064Z,100482.34
2023-03-20T05:13:37.996Z,100490.38
2023-03-20T05:16:26.687Z,100495.09
2023-03-20T05:19:15.352Z,100495.81
2023-03-20T05:22:03.848Z,100497.00
2023-03-20T05:24:52.828Z,100471.44
2023-03-20T05:27:41.343Z,100498.19
2023-03-20T05:30:31.218Z,100501.63
2023-03-20T05:33:19.861Z,100486.38
2023-03-20T05:36:09.282Z,100498.09
2023-03-20T05:38:57.824Z,100498.38
2023-03-20T05:41:46.343Z,100520.16
2023-03-20T05:44:34.805Z,100514.91
2023-03-20T05:47:26.188Z,100520.63
2023-03-20T05:50:14.878Z,100525.72
2023-03-20T05:53:03.594Z,100531.63
2023-03-20T05:55:52.155Z,100521.19
2023-03-20T05:58:40.605Z,100534.41
2023-03-20T06:01:29.112Z,100529.69
2023-03-20T06:04:18.897Z,100529.31
2023-03-20T06:07:07.478Z,100525.25
2023-03-20T06:09:56.221Z,100505.78
2023-03-20T06:12:44.675Z,100502.16
2023-03-20T06:15:33.229Z,100515.44
2023-03-20T06:18:21.708Z,100520.22
2023-03-20T06:21:12.968Z,100517.44
2023-03-20T06:24:01.532Z,100519.94
2023-03-20T06:26:50.014Z,100523.03
2023-03-20T06:29:38.500Z,100521.41
2023-03-20T06:32:27.018Z,100520.63
2023-03-20T06:35:15.723Z,100539.44
2023-03-20T06:38:05.614Z,100546.84
2023-03-20T06:40:54.066Z,100559.22
2023-03-20T06:43:44.142Z,100556.44
2023-03-20T06:46:32.781Z,100555.69
2023-03-20T06:49:21.425Z,100566.88
2023-03-20T06:52:16.394Z,100560.44
2023-03-20T06:55:07.089Z,100555.88
2023-03-20T06:57:55.576Z,100561.72
2023-03-20T07:00:44.945Z,100565.66
2023-03-20T07:03:33.488Z,100569.38
2023-03-20T07:06:23.030Z,100571.78
2023-03-20T07:09:11.612Z,100569.19
2023-03-20T07:12:02.401Z,100571.94
2023-03-20T07:14:50.963Z,100571.88
2023-03-20T07:17:39.456Z,100576.66
2023-03-20T07:20:28.155Z,100578.34
2023-03-20T07:23:16.690Z,100583.78
2023-03-20T07:26:05.610Z,100581.88
2023-03-20T07:28:55.511Z,100573.44
2023-03-20T07:31:44.115Z,100569.66
2023-03-20T07:34:32.757Z,100570.03
2023-03-20T07:37:21.325Z,100564.63
2023-03-20T07:40:11.136Z,100561.38
2023-03-20T07:42:59.770Z,100571.53
2023-03-20T07:45:49.647Z,100573.25
2023-03-20T07:48:38.163Z,100579.47
2023-03-20T07:51:26.814Z,100488.25
2023-03-20T07:54:16.122Z,100579.56
2023-03-20T07:57:05.397Z,100573.91
2023-03-20T07:59:53.862Z,100576.91
2023-03-20T08:02:43.918Z,100569.31
2023-03-20T08:05:32.552Z,100576.00
2023-03-20T08:08:21.228Z,100578.63
2023-03-20T08:11:09.937Z,100578.84
2023-03-20T08:13:58.442Z,100560.22
2023-03-20T08:16:46.959Z,100579.28
2023-03-20T08:19:38.305Z,100582.50
2023-03-20T08:22:26.830Z,100588.53
2023-03-20T08:25:15.329Z,100592.06
2023-03-20T08:28:04.470Z,100591.03
2023-03-20T08:30:53.141Z,100595.41
2023-03-20T08:33:41.696Z,100597.91
2023-03-20T08:36:31.542Z,100601.13
2023-03-20T08:39:20.141Z,100607.03
2023-03-20T08:42:08.668Z,100601.25
2023-03-20T08:44:58.663Z,100595.88
2023-03-20T08:47:48.766Z,100611.78
2023-03-20T08:50:37.838Z,100614.06
2023-03-20T08:53:27.714Z,100616.56
2023-03-20T08:56:16.271Z,100615.50
2023-03-20T08:59:04.883Z,100622.16
2023-03-20T09:01:53.534Z,100624.47
2023-03-20T09:04:42.139Z,100605.63
2023-03-20T09:07:30.597Z,100602.06
2023-03-20T09:10:20.509Z,100615.75
2023-03-20T09:13:25.784Z,100613.88
2023-03-20T09:16:15.191Z,100620.09
2023-03-20T09:19:03.798Z,100624.66
2023-03-20T09:21:52.294Z,100624.72
2023-03-20T09:24:40.987Z,100623.50
2023-03-20T09:27:30.866Z,100635.50
2023-03-20T09:30:19.553Z,100634.69
2023-03-20T09:33:08.030Z,100643.38
2023-03-20T09:35:56.676Z,100642.50
2023-03-20T09:38:45.208Z,100656.97
2023-03-20T09:41:52.928Z,100658.63
2023-03-20T09:44:54.792Z,100657.53
2023-03-20T09:47:48.917Z,100668.84
2023-03-20T09:50:40.438Z,100616.50
2023-03-20T09:53:31.661Z,100659.75
2023-03-20T09:56:22.827Z,100624.63
2023-03-20T09:59:16.050Z,100638.84
2023-03-20T10:02:12.442Z,100662.94
2023-03-20T10:05:01.153Z,100661.50
2023-03-20T10:07:49.792Z,100662.47
2023-03-20T10:10:47.650Z,100662.38
2023-03-20T10:13:45.156Z,100573.31
2023-03-20T10:16:43.728Z,100671.53
2023-03-20T10:19:35.251Z,100656.59
2023-03-20T10:22:25.489Z,100665.06
2023-03-20T10:25:24.723Z,100670.38
2023-03-20T10:28:14.718Z,100646.41
2023-03-20T10:31:15.684Z,100632.97
2023-03-20T10:34:14.894Z,100652.16
2023-03-20T10:37:17.027Z,100658.44
2023-03-20T10:40:24.821Z,100645.78
2023-03-20T10:43:17.985Z,100658.56
2023-03-20T10:46:10.426Z,100651.84
2023-03-20T10:49:02.506Z,100646.34
2023-03-20T10:51:53.932Z,100653.66
2023-03-20T10:54:45.474Z,100646.25
2023-03-20T10:57:36.470Z,100638.22
2023-03-20T11:00:27.918Z,100649.44
2023-03-20T11:03:22.648Z,100646.72
2023-03-20T11:06:18.592Z,100635.41
2023-03-20T11:09:13.055Z,100644.63
2023-03-20T11:12:05.578Z,100630.28
2023-03-20T11:15:00.452Z,100640.09
2023-03-20T11:17:54.110Z,100637.53
2023-03-20T11:20:46.988Z,100635.81
2023-03-20T11:23:36.560Z,100624.41
2023-03-20T11:26:34.096Z,100624.34
2023-03-20T11:29:27.936Z,100620.97
2023-03-20T11:32:27.710Z,100621.16
2023-03-20T11:35:25.302Z,100611.44
2023-03-20T11:38:16.091Z,100616.31
2023-03-20T11:41:06.215Z,100615.16
2023-03-20T11:43:55.228Z,100607.59
2023-03-20T11:46:45.608Z,100606.72
2023-03-20T11:49:36.217Z,100620.13
2023-03-20T11:52:28.635Z,100620.50
2023-03-20T11:55:26.104Z,100616.06
2023-03-20T11:58:16.862Z,100618.72
2023-03-20T12:01:05.728Z,100611.84
2023-03-20T12:04:09.093Z,100599.16
2023-03-20T12:06:59.816Z,100617.22
2023-03-20T12:09:50.908Z,100601.34
2023-03-20T12:12:42.117Z,100592.06
2023-03-20T12:15:33.108Z,100567.72
2023-03-20T12:18:26.569Z,100588.13
2023-03-20T12:21:21.046Z,100587.16
2023-03-20T12:24:14.647Z,100512.00
2023-03-20T12:27:17.126Z,100585.41
2023-03-20T12:30:11.597Z,100582.56
2023-03-20T12:33:04.495Z,100578.28
2023-03-20T12:35:54.456Z,100569.81
2023-03-20T12:38:45.372Z,100514.22
2023-03-20T12:41:40.132Z,100565.66
2023-03-20T12:44:37.838Z,100565.66
2023-03-20T12:47:54.085Z,100560.19
2023-03-20T12:50:43.258Z,100562.81
2023-03-20T12:53:42.407Z,100561.56
2023-03-20T12:56:51.497Z,100560.06
2023-03-20T12:59:50.189Z,100544.63
2023-03-20T13:02:47.342Z,100545.91
2023-03-20T13:05:42.916Z,100549.81
2023-03-20T13:08:44.392Z,100554.25
2023-03-20T13:11:37.468Z,100537.03
2023-03-20T13:14:30.610Z,100544.06
2023-03-20T13:17:23.872Z,100546.66
2023-03-20T13:20:27.056Z,100532.00
2023-03-20T13:23:22.478Z,100539.03
2023-03-20T13:26:22.330Z,100531.75
2023-03-20T13:29:15.586Z,100531.06
2023-03-20T13:32:17.084Z,100525.41
2023-03-20T13:35:31.927Z,100535.59
2023-03-20T13:38:22.791Z,100530.41
2023-03-20T13:41:14.346Z,100516.81
2023-03-20T13:44:04.516Z,100524.38
2023-03-20T13:46:56.209Z,100521.94
2023-03-20T13:49:52.056Z,100519.72
2023-03-20T13:52:44.217Z,100523.00
2023-03-20T13:55:38.907Z,100518.34
2023-03-20T13:58:38.464Z,100512.03
2023-03-20T14:01:33.850Z,100503.09
2023-03-20T14:04:24.621Z,100501.59
2023-03-20T14:10:39.211Z,100491.91
2023-03-20T14:13:28.185Z,100492.66
2023-03-20T14:16:18.387Z,100483.88
2023-03-20T14:19:10.531Z,100490.81
2023-03-20T14:22:00.550Z,100486.75
2023-03-20T14:24:58.229Z,100485.97
2023-03-20T14:27:59.805Z,100487.72
2023-03-20T14:30:50.744Z,100496.69
2023-03-20T14:33:44.287Z,100489.13
2023-03-20T14:36:45.918Z,100497.28
2023-03-20T14:39:46.874Z,100493.16
2023-03-20T14:42:44.554Z,100490.16
2023-03-20T14:45:39.274Z,100493.09
2023-03-20T14:48:31.993Z,100438.78
2023-03-20T14:51:29.742Z,100486.75
2023-03-20T14:54:25.900Z,100480.81
2023-03-20T14:57:20.030Z,100483.00
2023-03-20T15:00:19.488Z,100484.06
2023-03-20T15:03:11.287Z,100469.78
2023-03-20T15:06:02.186Z,100478.59
2023-03-20T15:08:53.197Z,100479.63
2023-03-20T15:11:42.843Z,100421.81
2023-03-20T15:14:35.443Z,100460.03
2023-03-20T15:17:26.535Z,100475.13
2023-03-20T15:20:19.197Z,100479.03
2023-03-20T15:23:08.524Z,100423.53
2023-03-20T15:25:57.053Z,100472.19
2023-03-20T15:28:46.526Z,100475.63
2023-03-20T15:31:36.508Z,100488.25
2023-03-20T15:34:27.439Z,100472.19
2023-03-20T15:37:18.900Z,100490.78
2023-03-20T15:40:13.733Z,100492.41
2023-03-20T15:43:07.230Z,100481.47
2023-03-20T15:46:14.201Z,100489.19
2023-03-20T15:49:06.237Z,100481.63
2023-03-20T15:51:57.256Z,100488.63
2023-03-20T15:54:47.712Z,100464.84
2023-03-20T15:57:38.877Z,100461.72
2023-03-20T16:00:31.011Z,100455.97
2023-03-20T16:03:21.874Z,100468.97
2023-03-20T16:06:12.279Z,100473.72
2023-03-20T16:09:02.481Z,100471.72
2023-03-20T16:11:57.777Z,100473.47
2023-03-20T16:14:48.326Z,100455.81
2023-03-20T16:17:36.925Z,100445.69
2023-03-20T16:20:27.304Z,100447.50
2023-03-20T16:23:24.613Z,100455.59
2023-03-20T16:26:17.021Z,100442.75
2023-03-20T16:29:07.641Z,100426.03
2023-03-20T16:31:58.741Z,100446.66
2023-03-20T16:34:52.086Z,100444.88
2023-03-20T16:37:44.410Z,100448.88
2023-03-20T16:40:34.729Z,100452.84
2023-03-20T16:43:28.743Z,100451.44
2023-03-20T16:46:22.580Z,100453.69
2023-03-20T16:49:52.161Z,100447.69
2023-03-20T16:52:41.977Z,100448.75
2023-03-20T16:55:32.302Z,100451.44
2023-03-20T16:58:23.460Z,100456.25
2023-03-20T17:01:17.028Z,100461.25
2023-03-20T17:04:15.917Z,100454.00
2023-03-20T17:07:08.711Z,100444.91
2023-03-20T17:10:00.630Z,100448.81
2023-03-20T17:12:50.511Z,100453.63
2023-03-20T17:15:38.994Z,100458.41
2023-03-20T17:18:27.483Z,100462.59
2023-03-20T17:21:17.335Z,100452.91
2023-03-20T17:24:06.503Z,100469.91
2023-03-20T17:26:56.285Z,100472.38
2023-03-20T17:29:45.478Z,100386.78
2023-03-20T17:32:34.235Z,100467.00
2023-03-20T17:35:22.848Z,100467.41
2023-03-20T17:38:18.865Z,100481.06
2023-03-20T17:41:09.666Z,100478.56
2023-03-20T17:43:58.192Z,100476.72
2023-03-20T17:46:57.905Z,100479.03
2023-03-20T17:49:51.835Z,100486.50
2023-03-20T17:52:40.329Z,100481.09
2023-03-20T17:55:30.256Z,100483.59
2023-03-20T17:58:21.057Z,100485.88
2023-03-20T18:01:10.986Z,100463.31
2023-03-20T18:03:59.517Z,100486.91
2023-03-20T18:06:49.145Z,100490.63
2023-03-20T18:09:37.886Z,100491.03
2023-03-20T18:12:27.840Z,100461.47
2023-03-20T18:15:16.593Z,100502.66
2023-03-20T18:18:05.761Z,100493.94
2023-03-20T18:20:55.108Z,100490.66
2023-03-20T18:23:43.821Z,100492.91
2023-03-20T18:26:32.246Z,100489.59
2023-03-20T18:29:22.498Z,100486.50
2023-03-20T18:32:10.988Z,100486.94
2023-03-20T18:34:59.632Z,100479.06
2023-03-20T18:37:48.284Z,100484.63
2023-03-20T18:40:38.549Z,100463.94
2023-03-20T18:43:27.164Z,100476.56
2023-03-20T18:46:18.500Z,100483.59
2023-03-20T18:49:07.977Z,100473.66
2023-03-20T18:51:56.514Z,100476.56
2023-03-20T18:54:44.990Z,100475.72
2023-03-20T18:57:34.026Z,100488.53
2023-03-20T19:00:25.416Z,100450.66
2023-03-20T19:03:15.573Z,100485.41
2023-03-20T19:06:04.125Z,100484.56
2023-03-20T19:08:53.144Z,100478.31
2023-03-20T19:11:41.649Z,100492.41
2023-03-20T19:14:30.255Z,100488.66
2023-03-20T19:17:18.739Z,100479.50
2023-03-20T19:20:18.144Z,100468.56
2023-03-20T19:23:07.965Z,100471.00
2023-03-20T19:25:56.645Z,100476.97
2023-03-20T19:28:45.903Z,100473.03
2023-03-20T19:31:34.447Z,100471.81
2023-03-20T19:35:00.777Z,100471.78
2023-03-20T19:37:32.742Z,100467.41
2023-03-20T19:40:25.858Z,100484.59
2023-03-20T19:43:15.554Z,100472.59
2023-03-20T19:46:04.185Z,100467.56
2023-03-20T19:48:53.663Z,100467.16
2023-03-20T19:51:46.022Z,100473.78
2023-03-20T19:54:35.944Z,100463.78
2023-03-20T19:57:26.896Z,100472.09
2023-03-20T20:03:26.907Z,100462.53
2023-03-20T20:06:16.087Z,100468.69
2023-03-20T20:09:05.214Z,100479.47
2023-03-20T20:11:55.136Z,100473.88
2023-03-20T20:14:44.187Z,100479.69
2023-03-20T20:17:32.654Z,100477.41
2023-03-20T20:20:25.046Z,100482.56
2023-03-20T20:23:15.700Z,100487.72
2023-03-20T20:26:04.860Z,100475.94
2023-03-20T20:28:54.678Z,100452.13
2023-03-20T20:31:43.317Z,100429.38
2023-03-20T20:38:27.061Z,100470.41
2023-03-20T20:40:50.806Z,100470.56
2023-03-20T20:44:14.057Z,100472.41
2023-03-20T20:46:51.919Z,100468.28
2023-03-20T20:49:40.661Z,100470.31
2023-03-20T20:52:29.197Z,100463.72
2023-03-20T20:55:23.118Z,100453.31
2023-03-20T20:58:12.141Z,100465.53
2023-03-20T21:01:01.799Z,100465.53
2023-03-20T21:03:52.316Z,100463.84
2023-03-20T21:07:08.203Z,100460.09
2023-03-20T21:09:50.034Z,100471.91
2023-03-20T21:12:55.876Z,100464.03
2023-03-20T21:15:47.434Z,100465.34
2023-03-20T21:18:36.396Z,100466.97
2023-03-20T21:21:26.255Z,100466.13
2023-03-20T21:24:31.682Z,100454.94
2023-03-20T21:27:21.956Z,100465.28
2023-03-20T21:30:11.715Z,100457.81
2023-03-20T21:33:00.353Z,100463.56
2023-03-20T21:35:50.718Z,100468.28
2023-03-20T21:39:06.832Z,100467.28
2023-03-20T21:41:49.194Z,100465.41
2023-03-20T21:51:42.216Z,100463.94
2023-03-20T21:55:00.615Z,100465.13
2023-03-20T22:04:06.255Z,100463.88
2023-03-20T22:10:37.594Z,100460.53
2023-03-20T22:23:12.869Z,100462.91
2023-03-20T22:26:25.265Z,100457.09
2023-03-20T22:38:55.523Z,100452.56
2023-03-20T22:47:38.058Z,100449.50
2023-03-20T22:50:26.535Z,100443.25
2023-03-20T22:53:15.400Z,100456.50
2023-03-20T22:56:04.213Z,100436.22
2023-03-20T22:58:53.997Z,100447.00
2023-03-20T23:01:42.508Z,100445.34
2023-03-20T23:04:31.311Z,100450.28
2023-03-20T23:07:19.919Z,100446.13
2023-03-20T23:10:09.917Z,100444.66
2023-03-20T23:12:58.463Z,100437.66
2023-03-20T23:15:50.523Z,100439.47
2023-03-20T23:18:39.226Z,100439.69
2023-03-20T23:21:28.234Z,100433.50
2023-03-20T23:24:16.896Z,100417.56
2023-03-20T23:27:05.640Z,100440.44
2023-03-20T23:29:54.100Z,100427.63
2023-03-20T23:32:44.087Z,100429.50
2023-03-20T23:35:32.564Z,100416.38
2023-03-20T23:38:21.118Z,100430.03
2023-03-20T23:41:10.753Z,100428.59
2023-03-20T23:43:59.298Z,100422.56
2023-03-20T23:46:48.417Z,100422.56
2023-03-20T23:49:39.750Z,100407.34
2023-03-20T23:52:28.166Z,100424.22
2023-03-20T23:55:21.450Z,100411.22
2023-03-20T23:58:09.995Z,100416.94
